CheckWX is a tool to help pilots better visualize weather data.  It is not intended as a substitute for an official pre-flight weather briefing.

03:36:54 UTC

KSPA METAR
Spartanburg Downtown Memorial Airport
Spartanburg, South Carolina, USA
Current

42 mins ago

KSPA 260255Z AUTO 29003KT 10SM CLR 26/18 A3011 RMK AO2
Observed
May-26 @ 02:55 UTC
Wind
  • 290° at 3 KTS
Visibility
10 SM
Flight Rules
VFR
Cloud Levels
  • Clear skies
Temperature
26°C / 79°F
Dewpoint
18°C / 64°F
Humidity
61%
Altimeter
30.11" Hg
Pressure
1019.62 hPa
Previous

1 hour ago

KSPA 260235Z AUTO 24004KT 10SM CLR 26/18 A3011 RMK AO2
Observed
May-26 @ 02:35 UTC
Wind
  • 240° at 4 KTS
Visibility
10 SM
Flight Rules
VFR
Cloud Levels
  • Clear skies
Temperature
26°C / 79°F
Dewpoint
18°C / 64°F
Humidity
61%
Altimeter
30.11" Hg
Pressure
1019.62 hPa
Previous

1 hour ago

KSPA 260215Z AUTO 23004KT 10SM CLR 26/18 A3010 RMK AO2
Observed
May-26 @ 02:15 UTC
Wind
  • 230° at 4 KTS
Visibility
10 SM
Flight Rules
VFR
Cloud Levels
  • Clear skies
Temperature
26°C / 79°F
Dewpoint
18°C / 64°F
Humidity
61%
Altimeter
30.1" Hg
Pressure
1019.32 hPa